Time;durP1;ratioP1;P1;durP2;ratioP2;P2;SDS_P1;SDS_P2;PMS_P1;PMS_P2;Temp;Humidity;BMP_temperature;BMP_pressure;BME280_temperature;BME280_humidity;BME280_pressure;Samples;Min_cycle;Max_cycle;Signal;HPM_P1;HPM_P2
2023/09/22 00:00:28;;;;;;;9.38;8.15;;;;;;;15.55;74.08;99778.34;5089761;28;20063;-70
2023/09/22 00:02:54;;;;;;;10.48;7.85;;;;;;;15.49;73.89;99777.63;5082481;28;20036;-69
2023/09/22 00:05:19;;;;;;;10.40;7.53;;;;;;;15.55;73.54;99772.75;5074531;28;20031;-70
2023/09/22 00:07:45;;;;;;;8.82;7.65;;;;;;;15.46;73.09;99773.47;5085864;28;20032;-70
2023/09/22 00:10:12;;;;;;;8.98;7.25;;;;;;;15.39;73.34;99770.25;5082215;28;20040;-70
2023/09/22 00:12:37;;;;;;;9.45;7.15;;;;;;;15.42;73.44;99774.41;5081581;28;20077;-70
2023/09/22 00:15:03;;;;;;;9.48;7.18;;;;;;;15.41;73.44;99772.78;5088069;28;20593;-69
2023/09/22 00:17:28;;;;;;;9.27;7.45;;;;;;;15.32;73.47;99783.00;5076797;28;20545;-70
2023/09/22 00:19:54;;;;;;;8.82;7.15;;;;;;;15.25;73.36;99774.19;5084032;28;20043;-70
2023/09/22 00:22:29;;;;;;;7.78;6.68;;;;;;;15.26;73.50;99771.09;5079144;28;20032;-70
2023/09/22 00:24:55;;;;;;;8.77;7.88;;;;;;;15.17;73.57;99767.38;5089996;28;20586;-70
2023/09/22 00:27:21;;;;;;;9.93;7.65;;;;;;;15.17;73.44;99772.97;5073882;28;20047;-70
2023/09/22 00:29:46;;;;;;;8.82;7.07;;;;;;;15.15;73.58;99778.03;5070847;28;20028;-70
2023/09/22 00:32:14;;;;;;;8.30;6.65;;;;;;;15.14;73.40;99773.59;5071082;28;20035;-70
2023/09/22 00:34:40;;;;;;;8.70;7.47;;;;;;;15.09;73.65;99776.47;5080845;28;20154;-70
2023/09/22 00:37:05;;;;;;;7.43;6.65;;;;;;;15.14;73.91;99791.19;5091385;28;20102;-70
2023/09/22 00:39:30;;;;;;;8.00;7.20;;;;;;;15.16;73.98;99788.06;5074314;28;20116;-70
2023/09/22 00:42:01;;;;;;;10.63;8.15;;;;;;;15.10;73.65;99780.94;5070319;28;20024;-69
2023/09/22 00:44:26;;;;;;;10.93;7.75;;;;;;;15.12;73.96;99785.06;5082603;28;20403;-69
2023/09/22 00:46:52;;;;;;;9.73;6.95;;;;;;;15.10;73.76;99778.16;5091052;28;20491;-70
2023/09/22 00:49:17;;;;;;;9.80;8.02;;;;;;;15.04;73.78;99777.41;5090256;28;20062;-70
2023/09/22 00:51:46;;;;;;;12.32;8.07;;;;;;;15.12;73.79;99770.25;5090162;28;20028;-70
2023/09/22 00:54:13;;;;;;;11.00;8.02;;;;;;;15.12;73.77;99757.13;5088715;28;20024;-70
2023/09/22 00:56:48;;;;;;;10.38;7.78;;;;;;;15.03;74.32;99764.56;5084599;28;20023;-70
2023/09/22 00:59:15;;;;;;;9.77;7.90;;;;;;;15.03;73.72;99760.97;5090337;28;20020;-70
2023/09/22 01:01:42;;;;;;;9.70;8.30;;;;;;;14.92;74.47;99766.72;5072597;28;20133;-70
2023/09/22 01:04:07;;;;;;;11.00;8.55;;;;;;;14.92;74.50;99765.91;5070377;28;20052;-70
2023/09/22 01:06:33;;;;;;;15.60;8.98;;;;;;;15.00;74.55;99778.34;5071050;28;20513;-70
2023/09/22 01:09:00;;;;;;;12.80;9.10;;;;;;;14.93;74.43;99779.59;5080118;28;20024;-70
2023/09/22 01:11:25;;;;;;;13.48;9.35;;;;;;;14.95;74.47;99770.88;5089237;28;20088;-70
2023/09/22 01:13:50;;;;;;;10.30;8.75;;;;;;;14.97;74.59;99760.22;5087215;28;20429;-70
2023/09/22 01:16:16;;;;;;;14.75;9.43;;;;;;;14.92;74.23;99769.53;5090604;28;20032;-70
2023/09/22 01:18:41;;;;;;;11.52;8.98;;;;;;;14.92;74.26;99765.91;5090262;28;20208;-70
2023/09/22 01:21:09;;;;;;;13.15;8.98;;;;;;;14.92;74.60;99772.31;5089732;28;20031;-70
2023/09/22 01:23:35;;;;;;;12.27;9.13;;;;;;;14.85;74.26;99773.84;5089095;28;20056;-70
2023/09/22 01:26:00;;;;;;;11.95;9.15;;;;;;;14.84;74.34;99764.66;5086541;28;20058;-70
2023/09/22 01:28:25;;;;;;;13.75;9.52;;;;;;;14.83;74.69;99760.22;5089857;28;20051;-69
2023/09/22 01:30:51;;;;;;;13.07;9.57;;;;;;;14.90;74.42;99755.06;5080255;28;20758;-69
2023/09/22 01:33:16;;;;;;;14.07;10.07;;;;;;;14.86;74.18;99756.81;5090769;28;20024;-70
2023/09/22 01:35:42;;;;;;;13.60;10.10;;;;;;;14.83;74.71;99743.44;5089720;28;20024;-70
2023/09/22 01:38:18;;;;;;;11.65;9.13;;;;;;;14.85;74.64;99757.91;5089729;28;20387;-69
2023/09/22 01:40:44;;;;;;;12.13;9.75;;;;;;;14.80;74.32;99755.22;5089730;28;20463;-70
2023/09/22 01:43:10;;;;;;;11.82;9.80;;;;;;;14.74;74.60;99750.91;5094005;28;20081;-70
2023/09/22 01:45:36;;;;;;;12.27;9.77;;;;;;;14.78;74.88;99748.31;5092435;28;20090;-70
2023/09/22 01:48:02;;;;;;;13.73;10.07;;;;;;;14.73;74.88;99752.81;5075860;28;20198;-69
2023/09/22 01:50:28;;;;;;;12.90;9.45;;;;;;;14.76;75.20;99750.56;5074217;28;20033;-69
2023/09/22 01:52:53;;;;;;;14.20;10.23;;;;;;;14.71;75.13;99765.47;5072961;28;20028;-70
2023/09/22 01:55:20;;;;;;;13.10;10.20;;;;;;;14.72;75.31;99781.09;5074060;28;20107;-70
2023/09/22 01:57:49;;;;;;;11.68;9.80;;;;;;;14.75;75.57;99760.09;5083014;28;20069;-69
2023/09/22 02:00:16;;;;;;;16.58;10.27;;;;;;;14.70;75.70;99758.22;5077086;28;20476;-70
2023/09/22 02:02:44;;;;;;;16.02;9.75;;;;;;;14.72;75.51;99762.34;5073903;28;20027;-70
2023/09/22 02:05:11;;;;;;;13.27;9.70;;;;;;;14.65;75.71;99764.72;5079110;28;20452;-70
2023/09/22 02:07:37;;;;;;;13.82;9.65;;;;;;;14.65;75.69;99753.53;5073624;28;20028;-70
2023/09/22 02:10:05;;;;;;;11.88;10.00;;;;;;;14.63;75.89;99750.25;5074037;28;20036;-69
2023/09/22 02:12:31;;;;;;;13.10;10.30;;;;;;;14.65;75.86;99758.31;5073757;28;20109;-70
2023/09/22 02:14:56;;;;;;;11.52;9.70;;;;;;;14.65;75.78;99752.72;5072682;28;20475;-70
2023/09/22 02:17:22;;;;;;;13.82;9.68;;;;;;;14.63;76.07;99760.59;5081034;28;20388;-69
2023/09/22 02:19:47;;;;;;;13.77;10.02;;;;;;;14.63;76.24;99766.16;5079908;28;20121;-69
2023/09/22 02:22:13;;;;;;;11.75;9.75;;;;;;;14.67;76.12;99761.63;5093572;28;20062;-69
2023/09/22 02:24:39;;;;;;;12.98;10.50;;;;;;;14.73;75.93;99760.38;5093528;28;20024;-70
2023/09/22 02:27:04;;;;;;;10.95;9.70;;;;;;;14.64;76.00;99765.03;5091808;28;20028;-69
2023/09/22 02:29:30;;;;;;;14.55;10.02;;;;;;;14.72;75.75;99775.50;5093578;28;20058;-69
2023/09/22 02:31:55;;;;;;;14.18;9.63;;;;;;;14.74;76.05;99770.44;5091909;28;20028;-69
2023/09/22 02:34:21;;;;;;;12.25;9.80;;;;;;;14.65;76.21;99767.50;5074501;28;20376;-70
2023/09/22 02:36:49;;;;;;;18.80;10.45;;;;;;;14.68;76.15;99761.31;5073289;28;20033;-70
2023/09/22 02:39:16;;;;;;;14.07;10.07;;;;;;;14.72;76.42;99756.78;5072674;28;20503;-69
2023/09/22 02:41:44;;;;;;;15.30;10.00;;;;;;;14.71;76.22;99759.88;5072386;28;20104;-69
2023/09/22 02:44:11;;;;;;;13.57;10.32;;;;;;;14.64;76.50;99765.84;5074461;28;20476;-69
2023/09/22 02:46:36;;;;;;;13.77;9.48;;;;;;;14.69;76.32;99756.56;5084539;28;20158;-69
2023/09/22 02:49:01;;;;;;;12.82;10.27;;;;;;;14.63;76.38;99755.81;5077338;28;20103;-69
2023/09/22 02:51:27;;;;;;;11.43;8.95;;;;;;;14.68;76.50;99760.50;5085259;28;20055;-70
2023/09/22 02:53:55;;;;;;;13.23;9.82;;;;;;;14.65;76.44;99770.28;5092906;28;20028;-69
2023/09/22 02:56:21;;;;;;;12.65;9.88;;;;;;;14.63;76.34;99763.38;5092315;28;20222;-70
2023/09/22 02:58:48;;;;;;;11.93;9.38;;;;;;;14.63;76.60;99775.38;5092959;28;20198;-69
2023/09/22 03:01:14;;;;;;;14.23;9.68;;;;;;;14.66;76.57;99765.56;5091789;28;20031;-69
2023/09/22 03:03:42;;;;;;;13.38;9.40;;;;;;;14.59;76.56;99774.34;5084897;28;20085;-70
2023/09/22 03:06:14;;;;;;;12.25;9.52;;;;;;;14.56;76.68;99762.94;5091839;28;20028;-69
2023/09/22 03:08:39;;;;;;;13.80;9.93;;;;;;;14.60;76.88;99773.19;5090845;28;20046;-69
2023/09/22 03:11:05;;;;;;;15.60;9.80;;;;;;;14.57;76.90;99775.75;5083802;28;20479;-69
2023/09/22 03:13:31;;;;;;;12.15;8.52;;;;;;;14.56;76.70;99774.13;5089939;28;20093;-69
2023/09/22 03:15:57;;;;;;;12.88;8.50;;;;;;;14.54;77.12;99770.78;5084357;28;20383;-69
2023/09/22 03:18:25;;;;;;;11.35;8.18;;;;;;;14.52;76.84;99778.66;5090481;28;20051;-70
2023/09/22 03:20:50;;;;;;;12.93;8.43;;;;;;;14.61;76.82;99776.81;5091211;28;20119;-69
2023/09/22 03:23:16;;;;;;;12.93;7.72;;;;;;;14.60;76.77;99777.94;5091701;28;20114;-69
2023/09/22 03:25:44;;;;;;;11.65;7.93;;;;;;;14.55;76.99;99778.88;5089028;28;20035;-69
2023/09/22 03:28:09;;;;;;;9.50;7.60;;;;;;;14.51;77.19;99763.88;5092508;28;20031;-69
2023/09/22 03:30:35;;;;;;;12.50;7.93;;;;;;;14.60;76.97;99775.16;5088509;28;20027;-69
2023/09/22 03:33:00;;;;;;;9.90;7.07;;;;;;;14.54;77.19;99774.44;5094106;28;20467;-69
2023/09/22 03:35:25;;;;;;;16.27;8.05;;;;;;;14.53;77.15;99771.94;5091473;28;20033;-69
2023/09/22 03:37:52;;;;;;;9.52;7.13;;;;;;;14.58;77.17;99780.22;5109555;28;20470;-69
2023/09/22 03:40:23;;;;;;;10.27;6.95;;;;;;;14.52;77.59;99776.69;5112397;28;20030;-69
2023/09/22 03:42:48;;;;;;;8.52;6.45;;;;;;;14.52;77.72;99785.06;5081142;28;20111;-69
2023/09/22 03:45:13;;;;;;;11.77;6.03;;;;;;;14.52;77.53;99785.06;5084096;28;20463;-69
2023/09/22 03:47:39;;;;;;;8.38;5.28;;;;;;;14.53;77.66;99775.53;5095807;28;20052;-69
2023/09/22 03:50:05;;;;;;;7.25;5.22;;;;;;;14.55;77.53;99775.25;5088706;28;20060;-69
2023/09/22 03:52:30;;;;;;;13.00;5.25;;;;;;;14.49;77.34;99775.31;5098356;28;20032;-69
2023/09/22 03:54:56;;;;;;;8.02;4.95;;;;;;;14.43;78.16;99784.91;5091746;28;20146;-69
2023/09/22 03:57:22;;;;;;;9.25;5.20;;;;;;;14.53;77.69;99781.13;5099543;28;20146;-69
2023/09/22 03:59:50;;;;;;;7.45;4.35;;;;;;;14.51;77.60;99786.22;5090961;28;20028;-69
2023/09/22 04:02:15;;;;;;;9.15;4.90;;;;;;;14.51;77.82;99788.16;5104743;28;20138;-69
2023/09/22 04:04:41;;;;;;;5.43;4.40;;;;;;;14.50;78.11;99792.91;5104504;28;20102;-69
2023/09/22 04:07:06;;;;;;;7.03;4.38;;;;;;;14.47;78.13;99788.75;5084125;28;20351;-69
2023/09/22 04:09:31;;;;;;;5.75;4.30;;;;;;;14.50;77.84;99784.53;5111650;28;20023;-69
2023/09/22 04:11:57;;;;;;;7.20;3.38;;;;;;;14.47;78.16;99783.16;5081496;28;20032;-69
2023/09/22 04:14:23;;;;;;;6.22;4.45;;;;;;;14.54;78.00;99787.53;5070726;28;20452;-69
2023/09/22 04:16:48;;;;;;;7.88;3.72;;;;;;;14.58;77.71;99783.84;5076287;28;20075;-69
2023/09/22 04:19:14;;;;;;;6.05;3.58;;;;;;;14.59;77.77;99788.28;5088832;28;20306;-69
2023/09/22 04:21:44;;;;;;;5.43;3.80;;;;;;;14.55;77.59;99784.47;5094989;28;20023;-69
2023/09/22 04:24:11;;;;;;;4.53;3.20;;;;;;;14.58;77.64;99788.59;5084775;28;20040;-69
2023/09/22 04:26:42;;;;;;;8.35;3.55;;;;;;;14.49;77.59;99802.41;5089528;28;20047;-69
2023/09/22 04:29:08;;;;;;;7.60;3.50;;;;;;;14.47;77.63;99799.91;5091385;28;20028;-69
2023/09/22 04:31:34;;;;;;;5.72;3.13;;;;;;;14.49;77.71;99803.25;5078010;28;20373;-69
2023/09/22 04:34:00;;;;;;;5.40;3.40;;;;;;;14.47;77.92;99790.72;5073147;28;20031;-69
2023/09/22 04:36:26;;;;;;;6.05;3.35;;;;;;;14.44;77.87;99800.50;5088605;28;20032;-69
2023/09/22 04:38:51;;;;;;;7.80;3.35;;;;;;;14.44;77.91;99796.91;5072197;28;20032;-69
2023/09/22 04:41:22;;;;;;;6.82;3.47;;;;;;;14.39;77.93;99794.19;5084802;28;20028;-70
2023/09/22 04:43:48;;;;;;;6.78;3.78;;;;;;;14.41;77.93;99803.09;5091245;28;20021;-69
2023/09/22 04:46:15;;;;;;;8.00;3.40;;;;;;;14.38;78.09;99800.91;5090997;28;20665;-69
2023/09/22 04:48:40;;;;;;;3.70;3.20;;;;;;;14.34;78.18;99803.47;5088120;28;20024;-69
2023/09/22 04:51:06;;;;;;;8.18;3.60;;;;;;;14.34;77.75;99797.88;5090113;28;20024;-69
2023/09/22 04:53:32;;;;;;;5.13;3.53;;;;;;;14.33;77.85;99807.38;5090968;28;20104;-70
2023/09/22 04:56:04;;;;;;;3.72;3.20;;;;;;;14.38;78.21;99806.47;5082711;28;20146;-69
2023/09/22 04:58:30;;;;;;;;;;;;;;;14.54;77.52;99801.50;5086088;28;20046;-69
2023/09/22 05:00:56;;;;;;;5.45;3.28;;;;;;;14.40;77.65;99798.66;5084022;28;19932;-69
2023/09/22 05:03:24;;;;;;;6.72;2.80;;;;;;;14.36;77.59;99803.19;5081304;28;20023;-70
2023/09/22 05:05:49;;;;;;;5.53;3.22;;;;;;;14.34;77.62;99805.44;5087734;28;20423;-70
2023/09/22 05:08:14;;;;;;;6.15;2.92;;;;;;;14.39;77.92;99808.16;5076787;28;20464;-69
2023/09/22 05:10:40;;;;;;;4.03;2.72;;;;;;;14.32;77.63;99805.75;5081482;28;20037;-69
2023/09/22 05:13:08;;;;;;;4.40;2.75;;;;;;;14.34;77.79;99811.00;5087541;28;20032;-69
2023/09/22 05:15:33;;;;;;;4.97;2.90;;;;;;;14.37;77.49;99822.41;5078696;28;20100;-69
2023/09/22 05:17:59;;;;;;;8.90;3.08;;;;;;;14.33;77.87;99818.56;5076993;28;20056;-69
2023/09/22 05:20:24;;;;;;;4.28;2.97;;;;;;;14.39;77.79;99828.53;5074990;28;20145;-71
2023/09/22 05:22:50;;;;;;;3.63;2.50;;;;;;;14.36;77.87;99819.94;5092468;28;20024;-69
2023/09/22 05:25:16;;;;;;;4.75;2.63;;;;;;;14.37;77.59;99827.97;5080373;28;20479;-69
2023/09/22 05:27:44;;;;;;;5.97;3.00;;;;;;;14.34;77.89;99836.97;5093735;28;20039;-69
2023/09/22 05:30:10;;;;;;;4.45;2.90;;;;;;;14.32;78.01;99832.84;5085895;28;20387;-67
2023/09/22 05:32:36;;;;;;;8.50;3.03;;;;;;;14.29;77.49;99830.63;5083233;28;20431;-70
2023/09/22 05:35:01;;;;;;;5.43;2.70;;;;;;;14.29;77.52;99834.25;5078894;28;20113;-68
2023/09/22 05:37:27;;;;;;;5.47;3.10;;;;;;;14.16;78.11;99841.44;5082215;28;20029;-68
2023/09/22 05:39:53;;;;;;;5.03;3.25;;;;;;;14.18;78.35;99841.13;5077430;28;20032;-69
2023/09/22 05:42:24;;;;;;;6.28;3.10;;;;;;;14.22;78.29;99847.75;5086378;28;20032;-70
2023/09/22 05:44:50;;;;;;;6.25;3.20;;;;;;;14.21;78.15;99855.31;5089864;28;20023;-70
2023/09/22 05:47:15;;;;;;;5.75;3.33;;;;;;;14.25;77.90;99850.78;5090853;28;20043;-70
2023/09/22 05:49:40;;;;;;;6.70;2.97;;;;;;;14.20;78.22;99864.00;5089471;28;20075;-69
2023/09/22 05:52:06;;;;;;;6.18;3.10;;;;;;;14.19;78.35;99848.38;5075774;28;20032;-69
2023/09/22 05:54:31;;;;;;;5.85;3.33;;;;;;;14.14;78.15;99854.00;5088862;28;20028;-66
2023/09/22 05:56:56;;;;;;;6.60;2.85;;;;;;;14.20;78.00;99853.66;5091194;28;20029;-68
2023/09/22 05:59:24;;;;;;;3.78;2.83;;;;;;;14.08;78.32;99852.44;5091671;28;20118;-70
2023/09/22 06:01:49;;;;;;;3.13;2.50;;;;;;;14.13;78.16;99858.78;5093078;28;20063;-69
2023/09/22 06:04:14;;;;;;;5.60;2.83;;;;;;;14.13;78.34;99875.50;5093358;28;20072;-69
2023/09/22 06:06:42;;;;;;;6.25;2.90;;;;;;;14.15;78.40;99867.69;5092307;28;20050;-71
2023/09/22 06:09:11;;;;;;;6.53;3.00;;;;;;;14.19;78.22;99865.94;5084869;28;20024;-67
2023/09/22 06:11:38;;;;;;;5.78;2.90;;;;;;;14.24;78.02;99879.00;5075812;28;20029;-72
2023/09/22 06:14:06;;;;;;;5.80;3.00;;;;;;;14.21;78.23;99886.00;5090236;28;20059;-69
2023/09/22 06:16:32;;;;;;;4.35;2.83;;;;;;;14.19;78.56;99882.69;5085821;28;20064;-70
2023/09/22 06:18:58;;;;;;;7.75;2.88;;;;;;;14.54;83.05;99883.34;5086979;28;20028;-71
2023/09/22 06:21:23;;;;;;;7.90;3.00;;;;;;;14.55;78.30;99873.00;5091302;28;20044;-70
2023/09/22 06:23:49;;;;;;;4.78;2.85;;;;;;;14.50;77.80;99882.25;5091777;28;20493;-68
2023/09/22 06:26:18;;;;;;;6.25;2.70;;;;;;;14.47;77.85;99894.03;5092434;28;20070;-68
2023/09/22 06:28:43;;;;;;;4.25;2.50;;;;;;;14.45;77.93;99891.50;5083001;28;20538;-68
2023/09/22 06:31:09;;;;;;;5.60;2.80;;;;;;;14.41;77.72;99896.03;5092525;28;20119;-67
2023/09/22 06:33:37;;;;;;;4.68;2.58;;;;;;;14.40;77.80;99894.38;5091769;28;20071;-69
2023/09/22 06:36:10;;;;;;;5.25;2.50;;;;;;;14.39;77.80;99898.31;5085569;28;20089;-69
2023/09/22 06:38:35;;;;;;;5.95;2.35;;;;;;;14.37;77.94;99899.75;5082655;28;20028;-68
2023/09/22 06:41:04;;;;;;;3.28;2.28;;;;;;;14.39;77.79;99898.31;5086790;28;20020;-68
2023/09/22 06:43:30;;;;;;;5.47;2.47;;;;;;;14.37;77.82;99906.16;5088732;28;20071;-68
2023/09/22 06:45:58;;;;;;;4.88;2.22;;;;;;;14.35;78.56;99902.84;5075598;28;20052;-68
2023/09/22 06:48:27;;;;;;;5.30;2.40;;;;;;;14.37;78.26;99908.13;5074846;28;20024;-68
2023/09/22 06:50:54;;;;;;;5.07;2.30;;;;;;;14.38;78.41;99918.16;5085087;28;20024;-68
2023/09/22 06:53:21;;;;;;;6.85;2.33;;;;;;;14.38;77.81;99920.94;5078557;28;20081;-67
2023/09/22 06:55:47;;;;;;;2.85;2.08;;;;;;;14.43;77.80;99923.69;5082127;28;20120;-68
2023/09/22 06:58:12;;;;;;;5.57;2.25;;;;;;;14.41;77.59;99929.53;5081831;28;20539;-68
2023/09/22 07:00:37;;;;;;;6.70;2.30;;;;;;;14.37;78.09;99917.31;5087057;28;20027;-67
2023/09/22 07:03:04;;;;;;;6.05;2.00;;;;;;;14.39;78.12;99923.44;5082804;28;20032;-71
2023/09/22 07:05:29;;;;;;;5.10;2.00;;;;;;;14.38;77.82;99932.97;5079738;28;20099;-70
2023/09/22 07:07:55;;;;;;;3.95;1.75;;;;;;;14.41;77.48;99926.75;5090270;28;20126;-70
2023/09/22 07:10:20;;;;;;;3.38;1.63;;;;;;;14.45;77.57;99936.19;5089481;28;20032;-71
2023/09/22 07:12:46;;;;;;;5.47;1.73;;;;;;;14.45;77.11;99932.56;5091620;28;20123;-71
2023/09/22 07:15:11;;;;;;;2.67;1.80;;;;;;;14.44;77.74;99931.75;5094034;28;20382;-71
2023/09/22 07:17:37;;;;;;;4.43;2.15;;;;;;;14.52;77.44;99929.44;5089594;28;20036;-71
2023/09/22 07:20:04;;;;;;;4.53;1.70;;;;;;;14.46;76.97;99939.81;5083835;28;20033;-72
2023/09/22 07:22:33;;;;;;;5.20;1.80;;;;;;;14.47;76.76;99939.53;5088719;28;20451;-70
2023/09/22 07:24:59;;;;;;;4.55;1.80;;;;;;;14.49;76.61;99936.44;5091223;28;20032;-70
2023/09/22 07:27:24;;;;;;;5.25;1.75;;;;;;;14.48;76.69;99946.75;5091725;28;20090;-69
2023/09/22 07:29:50;;;;;;;3.38;1.55;;;;;;;14.57;76.91;99946.94;5088089;28;20012;-68
2023/09/22 07:32:22;;;;;;;4.57;1.27;;;;;;;14.63;76.61;99947.72;5086475;28;20036;-69
2023/09/22 07:34:51;;;;;;;3.35;1.48;;;;;;;14.68;75.56;99950.41;5084134;28;20055;-69
2023/09/22 07:37:16;;;;;;;4.70;1.73;;;;;;;14.69;75.49;99955.69;5083440;28;20035;-70
2023/09/22 07:39:42;;;;;;;3.25;1.40;;;;;;;14.78;75.38;99957.81;5089178;28;20492;-69
2023/09/22 07:42:09;;;;;;;3.22;1.63;;;;;;;14.85;74.66;99961.88;5091546;28;20028;-70
2023/09/22 07:44:40;;;;;;;3.65;1.50;;;;;;;14.92;74.34;99964.28;5090081;28;20047;-69
2023/09/22 07:47:10;;;;;;;1.87;1.50;;;;;;;14.97;74.15;99973.44;5091342;28;20073;-69
2023/09/22 07:49:37;;;;;;;4.53;1.50;;;;;;;15.08;73.86;99974.06;5090896;28;20282;-69
2023/09/22 07:52:04;;;;;;;3.70;1.40;;;;;;;15.20;73.05;99976.41;5090465;28;20076;-69
2023/09/22 07:54:31;;;;;;;3.13;1.30;;;;;;;15.35;72.98;99978.94;5085069;28;20114;-69
2023/09/22 07:56:56;;;;;;;2.97;1.30;;;;;;;15.51;72.55;99981.47;5091016;28;20032;-69
2023/09/22 07:59:21;;;;;;;1.85;1.13;;;;;;;15.62;71.68;99980.13;5090389;28;20028;-70
2023/09/22 08:01:47;;;;;;;2.55;1.27;;;;;;;15.63;69.98;99988.22;5090560;28;20024;-68
2023/09/22 08:04:13;;;;;;;3.20;1.27;;;;;;;15.76;70.23;99991.38;5090957;28;20020;-69
2023/09/22 08:06:39;;;;;;;3.63;1.10;;;;;;;15.69;69.19;99986.19;5090016;28;20020;-69
2023/09/22 08:09:05;;;;;;;2.88;1.20;;;;;;;15.85;70.00;99995.13;5084932;28;20531;-64
2023/09/22 08:11:31;;;;;;;2.97;1.00;;;;;;;15.90;69.27;99993.06;5076477;28;20472;-69
2023/09/22 08:13:58;;;;;;;2.58;1.00;;;;;;;15.92;69.11;99996.38;5070387;28;20032;-69
2023/09/22 08:16:24;;;;;;;2.53;1.00;;;;;;;16.04;68.11;99997.84;5070179;28;20052;-69
2023/09/22 08:18:49;;;;;;;1.83;1.00;;;;;;;16.08;68.67;99998.88;5069515;28;20778;-70
2023/09/22 08:21:15;;;;;;;1.85;0.90;;;;;;;16.14;68.49;99992.03;5070453;28;20025;-69
2023/09/22 08:23:41;;;;;;;2.60;0.90;;;;;;;16.10;68.10;100002.19;5070584;28;20044;-69
2023/09/22 08:26:07;;;;;;;3.17;0.85;;;;;;;16.05;67.71;99991.94;5073482;28;20032;-69
2023/09/22 08:28:33;;;;;;;2.90;1.00;;;;;;;16.00;67.08;100002.41;5088604;28;20028;-69
2023/09/22 08:31:04;;;;;;;3.55;0.90;;;;;;;16.04;67.37;100009.88;5090687;28;20023;-69
2023/09/22 08:33:31;;;;;;;1.50;0.80;;;;;;;16.10;67.92;100005.81;5088961;28;20019;-69
2023/09/22 08:35:57;;;;;;;1.52;0.90;;;;;;;16.17;67.95;99999.81;5087026;28;20103;-69
2023/09/22 08:38:22;;;;;;;1.70;1.00;;;;;;;16.24;67.45;99999.41;5087143;28;20431;-69
2023/09/22 08:40:48;;;;;;;2.67;0.98;;;;;;;16.22;67.03;99993.25;5089664;28;20039;-69
2023/09/22 08:43:13;;;;;;;2.22;1.10;;;;;;;16.44;67.70;100002.59;5086721;28;20032;-69
2023/09/22 08:45:40;;;;;;;1.13;0.80;;;;;;;16.60;66.96;100005.06;5085640;28;20020;-69
2023/09/22 08:48:06;;;;;;;1.23;0.75;;;;;;;16.81;67.35;100003.47;5088309;28;20054;-69
2023/09/22 08:50:31;;;;;;;2.28;1.00;;;;;;;16.91;66.47;100005.22;5090620;28;20372;-69
2023/09/22 08:52:57;;;;;;;2.38;0.98;;;;;;;16.82;65.03;100004.28;5093935;28;20020;-69
2023/09/22 08:55:23;;;;;;;3.78;1.27;;;;;;;16.72;65.27;100010.94;5091867;28;20032;-69
2023/09/22 08:57:49;;;;;;;2.35;0.80;;;;;;;16.64;64.71;100020.91;5092097;28;20043;-69
2023/09/22 09:00:20;;;;;;;2.58;1.00;;;;;;;16.71;65.73;100011.28;5085992;28;20028;-69
2023/09/22 09:02:50;;;;;;;2.05;1.00;;;;;;;16.72;65.50;100012.94;5089081;28;20111;-69
2023/09/22 09:05:20;;;;;;;2.00;1.05;;;;;;;16.62;64.25;100014.81;5092120;28;20031;-69
2023/09/22 09:07:50;;;;;;;2.53;0.90;;;;;;;16.54;64.73;100017.50;5091436;28;20028;-69
2023/09/22 09:10:29;;;;;;;1.23;0.98;;;;;;;16.65;64.27;100016.97;5090095;28;20035;-69
2023/09/22 09:12:56;;;;;;;2.10;0.80;;;;;;;16.61;64.12;100017.91;5076648;28;20478;-69
2023/09/22 09:15:25;;;;;;;1.40;0.80;;;;;;;16.60;65.00;100024.66;5073070;28;20028;-69
2023/09/22 09:18:07;;;;;;;3.63;0.80;;;;;;;16.73;64.48;100020.19;5073533;28;20055;-69
2023/09/22 09:20:36;;;;;;;1.67;0.70;;;;;;;16.82;62.57;100021.97;5073347;28;20479;-69
2023/09/22 09:23:13;;;;;;;2.65;0.70;;;;;;;17.04;62.96;100014.72;5072648;28;20025;-69
2023/09/22 09:25:43;;;;;;;1.98;0.93;;;;;;;17.15;61.44;100027.38;5073206;28;20127;-69
2023/09/22 09:28:08;;;;;;;2.92;0.98;;;;;;;17.26;61.36;100028.78;5089343;28;20024;-69
2023/09/22 09:30:37;;;;;;;2.28;0.88;;;;;;;17.32;60.93;100027.50;5074647;28;20113;-69
2023/09/22 09:33:10;;;;;;;3.17;0.90;;;;;;;17.29;59.60;100030.09;5073633;28;20142;-69
2023/09/22 09:35:39;;;;;;;1.10;0.80;;;;;;;17.25;60.76;100038.34;5073050;28;20031;-69
2023/09/22 09:38:06;;;;;;;2.42;1.23;;;;;;;17.24;60.21;100028.25;5077174;28;20032;-69
2023/09/22 09:40:37;;;;;;;1.85;0.80;;;;;;;17.31;60.90;100036.22;5093258;28;20028;-69
2023/09/22 09:43:05;;;;;;;2.03;0.90;;;;;;;17.39;60.88;100029.84;5092907;28;20473;-69
2023/09/22 09:45:33;;;;;;;1.67;0.95;;;;;;;17.50;60.92;100039.69;5089940;28;20421;-69
2023/09/22 09:47:59;;;;;;;1.67;0.90;;;;;;;17.57;60.33;100042.03;5074524;28;20460;-69
2023/09/22 09:50:25;;;;;;;2.78;0.85;;;;;;;17.67;59.68;100036.97;5072339;28;20039;-69
2023/09/22 09:53:06;;;;;;;1.88;0.93;;;;;;;17.70;58.63;100043.13;5072940;28;20021;-69
2023/09/22 09:55:35;;;;;;;2.10;0.90;;;;;;;17.85;59.67;100039.94;5072854;28;20486;-69
2023/09/22 09:58:02;;;;;;;1.40;0.88;;;;;;;17.98;59.14;100050.25;5072328;28;20134;-69
2023/09/22 10:00:28;;;;;;;2.33;0.80;;;;;;;18.02;58.49;100034.41;5077151;28;20020;-68
2023/09/22 10:02:58;;;;;;;1.65;0.93;;;;;;;17.97;57.82;100047.75;5086723;28;20027;-69
2023/09/22 10:05:29;;;;;;;3.03;0.80;;;;;;;18.01;58.40;100031.94;5092358;28;20111;-69
2023/09/22 10:07:56;;;;;;;2.92;1.20;;;;;;;18.10;58.60;100041.22;5093208;28;20038;-69
2023/09/22 10:10:22;;;;;;;2.08;0.80;;;;;;;18.15;57.45;100036.25;5092953;28;20037;-69
2023/09/22 10:12:49;;;;;;;3.75;1.17;;;;;;;18.18;57.44;100032.00;5090970;28;20024;-69
2023/09/22 10:15:15;;;;;;;1.83;0.88;;;;;;;18.26;57.82;100028.38;5092857;28;20551;-69
2023/09/22 10:17:40;;;;;;;2.22;0.95;;;;;;;18.33;56.94;100045.59;5092433;28;20043;-69
2023/09/22 10:20:11;;;;;;;2.50;0.95;;;;;;;18.37;56.03;100043.81;5091970;28;20066;-69
2023/09/22 10:22:38;;;;;;;1.73;1.00;;;;;;;18.46;55.56;100040.19;5084510;28;20031;-69
2023/09/22 10:25:22;;;;;;;2.13;1.00;;;;;;;18.53;57.00;100032.94;5092594;28;20467;-69
2023/09/22 10:28:00;;;;;;;2.28;0.90;;;;;;;18.57;57.12;100027.50;5091332;28;20031;-69
2023/09/22 10:30:45;;;;;;;3.78;1.00;;;;;;;18.68;57.53;100026.03;5092499;28;20036;-69
2023/09/22 10:33:30;;;;;;;1.85;0.80;;;;;;;18.72;56.98;100015.00;5091834;28;20059;-69
2023/09/22 10:35:57;;;;;;;3.92;1.10;;;;;;;18.69;54.56;100022.06;5092559;28;20028;-71
2023/09/22 10:38:22;;;;;;;1.27;0.80;;;;;;;18.73;54.43;100020.28;5089064;28;20108;-69
2023/09/22 10:41:06;;;;;;;1.70;0.90;;;;;;;18.78;56.13;100022.94;5072954;28;20060;-69
2023/09/22 10:43:36;;;;;;;2.25;0.95;;;;;;;18.85;54.81;100031.72;5091965;28;20399;-69
2023/09/22 10:46:02;;;;;;;1.08;0.65;;;;;;;18.89;55.00;100035.50;5092566;28;20028;-69
2023/09/22 10:48:35;;;;;;;1.20;0.90;;;;;;;18.98;54.68;100027.13;5090964;28;20032;-69
2023/09/22 10:51:02;;;;;;;1.90;0.80;;;;;;;18.94;53.94;100030.88;5092299;28;20040;-69
2023/09/22 10:53:27;;;;;;;1.60;0.68;;;;;;;18.95;54.27;100021.31;5089984;28;20387;-69
2023/09/22 10:55:57;;;;;;;3.03;1.00;;;;;;;18.96;54.89;100020.97;5089335;28;20028;-69
2023/09/22 10:58:26;;;;;;;2.97;1.00;;;;;;;18.89;55.42;100024.28;5091042;28;20471;-70
2023/09/22 11:01:08;;;;;;;2.33;0.93;;;;;;;18.94;56.13;100028.06;5090211;28;20027;-69
2023/09/22 11:03:37;;;;;;;2.65;0.93;;;;;;;18.84;55.25;100030.06;5091894;28;20032;-69
2023/09/22 11:06:06;;;;;;;1.95;0.88;;;;;;;18.72;55.15;100035.50;5090585;28;20548;-69
2023/09/22 11:08:32;;;;;;;4.25;1.08;;;;;;;18.63;55.08;100029.84;5090955;28;20028;-69
2023/09/22 11:10:58;;;;;;;1.75;0.82;;;;;;;18.54;55.59;100028.16;5092003;28;20024;-69
2023/09/22 11:13:24;;;;;;;2.25;1.00;;;;;;;18.47;55.04;100023.03;5088889;28;20097;-68
2023/09/22 11:16:01;;;;;;;1.65;1.00;;;;;;;18.37;55.97;100024.13;5072630;28;20029;-69
2023/09/22 11:18:35;;;;;;;1.30;0.85;;;;;;;18.39;56.21;100030.28;5071117;28;20063;-69
2023/09/22 11:21:08;;;;;;;1.77;1.00;;;;;;;18.27;55.99;100035.66;5074423;28;20482;-69
2023/09/22 11:23:37;;;;;;;2.63;0.88;;;;;;;18.24;55.95;100043.94;5070280;28;20505;-69
2023/09/22 11:26:08;;;;;;;5.28;1.10;;;;;;;18.29;56.34;100043.78;5071340;28;20035;-69
2023/09/22 11:28:35;;;;;;;2.42;0.95;;;;;;;18.42;56.37;100042.81;5069982;28;20039;-69